Time;durP1;ratioP1;P1;durP2;ratioP2;P2;SDS_P1;SDS_P2;PMS_P1;PMS_P2;Temp;Humidity;BMP_temperature;BMP_pressure;BME280_temperature;BME280_humidity;BME280_pressure;Samples;Min_cycle;Max_cycle;Signal;HPM_P1;HPM_P2
2022/05/29 00:01:33;;;;;;;2.42;1.00;;;;;;;11.97;49.91;100389.03;5045745;28;20036;-69
2022/05/29 00:03:58;;;;;;;1.55;0.80;;;;;;;11.94;50.03;100384.06;5044196;28;20401;-69
2022/05/29 00:06:24;;;;;;;2.95;1.00;;;;;;;11.93;50.33;100381.56;5027756;28;20039;-69
2022/05/29 00:08:50;;;;;;;2.40;1.10;;;;;;;11.92;50.40;100379.88;5044945;28;20433;-69
2022/05/29 00:11:16;;;;;;;2.45;1.10;;;;;;;11.90;50.72;100377.41;5045810;28;20052;-69
2022/05/29 00:13:44;;;;;;;1.55;0.80;;;;;;;11.87;50.53;100380.41;5045413;28;20568;-69
2022/05/29 00:16:09;;;;;;;1.83;1.00;;;;;;;11.83;50.93;100382.50;5043861;28;20044;-69
2022/05/29 00:18:37;;;;;;;1.85;0.90;;;;;;;11.80;50.79;100382.03;5045300;28;20033;-69
2022/05/29 00:21:05;;;;;;;1.23;0.80;;;;;;;11.72;51.81;100377.50;5047116;28;20033;-69
2022/05/29 00:23:39;;;;;;;1.60;0.80;;;;;;;11.66;51.21;100365.75;5043092;28;20036;-69
2022/05/29 00:26:06;;;;;;;2.17;0.82;;;;;;;11.62;51.65;100377.66;5037167;28;20025;-69
2022/05/29 00:28:31;;;;;;;1.60;0.85;;;;;;;11.59;51.51;100364.75;5044996;28;20041;-69
2022/05/29 00:30:57;;;;;;;1.17;0.70;;;;;;;11.55;51.95;100371.34;5044187;28;20086;-69
2022/05/29 00:33:24;;;;;;;0.98;0.75;;;;;;;11.53;51.69;100372.50;5044299;28;20064;-69
2022/05/29 00:35:51;;;;;;;1.83;1.10;;;;;;;11.52;51.93;100369.03;5047430;28;20048;-69
2022/05/29 00:38:18;;;;;;;1.83;1.02;;;;;;;11.50;51.86;100363.06;5026853;28;20139;-69
2022/05/29 00:40:59;;;;;;;4.40;1.33;;;;;;;11.51;51.54;100361.25;5049293;28;20086;-69
2022/05/29 00:43:26;;;;;;;3.40;1.50;;;;;;;11.51;51.60;100358.59;5049966;28;20040;-69
2022/05/29 00:45:58;;;;;;;3.55;1.50;;;;;;;11.50;52.36;100355.13;5047654;28;20429;-69
2022/05/29 00:48:25;;;;;;;3.53;1.48;;;;;;;11.47;52.16;100364.22;5048181;28;20037;-69
2022/05/29 00:50:58;;;;;;;2.58;1.23;;;;;;;11.39;52.57;100358.06;5046960;28;20401;-69
2022/05/29 00:53:24;;;;;;;2.97;1.38;;;;;;;11.30;52.41;100348.44;5047191;28;20094;-69
2022/05/29 00:56:00;;;;;;;3.20;1.42;;;;;;;11.22;53.35;100339.47;5025418;28;20120;-69
2022/05/29 00:58:27;;;;;;;5.07;1.40;;;;;;;11.25;52.86;100346.31;5046438;28;20036;-69
2022/05/29 01:00:55;;;;;;;5.68;1.80;;;;;;;11.29;52.93;100331.72;5043804;28;20048;-69
2022/05/29 01:03:21;;;;;;;5.88;1.73;;;;;;;11.33;53.54;100337.56;5045649;28;20501;-69
2022/05/29 01:05:46;;;;;;;3.20;1.30;;;;;;;11.42;53.15;100342.72;5046742;28;20036;-69
2022/05/29 01:08:20;;;;;;;3.17;1.40;;;;;;;11.50;52.56;100333.13;5045482;28;20090;-69
2022/05/29 01:10:48;;;;;;;3.17;1.75;;;;;;;11.52;53.01;100344.38;5042032;28;20033;-69
2022/05/29 01:13:42;;;;;;;4.72;1.65;;;;;;;11.53;52.96;100344.19;5046644;28;20041;-69
2022/05/29 01:16:23;;;;;;;3.00;1.35;;;;;;;11.54;52.67;100335.28;5047257;28;20498;-69
2022/05/29 01:19:18;;;;;;;3.75;1.50;;;;;;;11.52;52.69;100339.91;5046747;28;20045;-69
2022/05/29 01:22:00;;;;;;;2.42;1.30;;;;;;;11.52;53.03;100341.72;5022863;28;20037;-69
2022/05/29 01:24:53;;;;;;;3.53;1.20;;;;;;;11.47;53.23;100342.22;5043765;28;20055;-69
2022/05/29 01:27:48;;;;;;;2.72;1.13;;;;;;;11.43;53.30;100346.16;5045991;28;20056;-69
2022/05/29 01:30:23;;;;;;;3.53;1.30;;;;;;;11.40;53.29;100341.22;5044683;28;20390;-69
2022/05/29 01:32:49;;;;;;;4.22;1.30;;;;;;;11.38;53.49;100343.19;5041754;28;20116;-69
2022/05/29 01:35:23;;;;;;;3.97;1.33;;;;;;;11.39;53.44;100339.53;5044639;28;20125;-69
2022/05/29 01:37:48;;;;;;;3.10;1.25;;;;;;;11.39;53.25;100335.09;5044718;28;20363;-69
2022/05/29 01:40:39;;;;;;;3.57;1.40;;;;;;;11.38;53.63;100335.25;5044773;28;20140;-69
2022/05/29 01:43:28;;;;;;;2.35;1.10;;;;;;;11.40;53.26;100328.78;5044093;28;20480;-69
2022/05/29 01:45:53;;;;;;;4.05;1.20;;;;;;;11.39;53.30;100327.16;5048124;28;20119;-69
2022/05/29 01:48:41;;;;;;;2.93;1.17;;;;;;;11.33;53.82;100327.78;5047778;28;20124;-69
2022/05/29 01:51:20;;;;;;;3.70;1.15;;;;;;;11.29;53.85;100323.78;5047985;28;20033;-69
2022/05/29 01:53:51;;;;;;;2.70;1.20;;;;;;;11.26;53.75;100321.47;5049087;28;20087;-69
2022/05/29 01:56:27;;;;;;;3.22;1.20;;;;;;;11.25;53.76;100325.13;5047114;28;20401;-69
2022/05/29 01:58:58;;;;;;;6.78;1.60;;;;;;;11.20;53.75;100330.06;5049232;28;20482;-69
2022/05/29 02:01:30;;;;;;;2.63;1.20;;;;;;;11.18;54.11;100329.41;5047476;28;20041;-69
2022/05/29 02:03:57;;;;;;;5.70;1.63;;;;;;;11.15;54.41;100337.66;5048258;28;20444;-69
2022/05/29 02:07:47;;;;;;;6.82;1.50;;;;;;;11.10;54.51;100326.72;5039853;28;20025;-69
2022/05/29 02:09:21;;;;;;;4.63;1.50;;;;;;;11.03;55.16;100319.41;5048433;28;20041;-69
2022/05/29 02:11:51;;;;;;;3.53;1.60;;;;;;;11.00;55.33;100325.03;5050178;28;20045;-69
2022/05/29 02:14:26;;;;;;;6.53;1.83;;;;;;;10.92;56.26;100310.94;5049105;28;20041;-69
2022/05/29 02:16:59;;;;;;;4.53;1.55;;;;;;;10.84;55.87;100304.66;5050995;28;20040;-69
2022/05/29 02:19:33;;;;;;;5.05;1.60;;;;;;;10.75;56.74;100310.88;5049750;28;20039;-69
2022/05/29 02:22:07;;;;;;;4.38;1.70;;;;;;;10.70;56.63;100307.03;5047941;28;20029;-69
2022/05/29 02:24:37;;;;;;;4.35;1.50;;;;;;;10.63;56.74;100309.50;5045662;28;20036;-69
2022/05/29 02:27:15;;;;;;;3.85;1.60;;;;;;;10.60;56.29;100304.50;5045246;28;20040;-69
2022/05/29 02:29:42;;;;;;;2.75;1.13;;;;;;;10.56;56.95;100303.19;5047617;28;20232;-69
2022/05/29 02:32:23;;;;;;;4.15;1.48;;;;;;;10.53;57.00;100306.94;5046559;28;20457;-69
2022/05/29 02:34:50;;;;;;;3.10;1.23;;;;;;;10.49;56.84;100304.78;5047131;28;20037;-69
2022/05/29 02:37:49;;;;;;;4.43;1.63;;;;;;;10.45;56.80;100293.69;5046681;28;20060;-69
2022/05/29 02:40:45;;;;;;;2.85;1.13;;;;;;;10.45;56.87;100293.69;5035642;28;20086;-69
2022/05/29 02:43:30;;;;;;;1.95;1.00;;;;;;;10.40;58.09;100286.22;5045726;28;20048;-69
2022/05/29 02:46:29;;;;;;;1.90;1.20;;;;;;;10.39;57.89;100284.59;5050560;28;20104;-69
2022/05/29 02:49:44;;;;;;;2.95;1.15;;;;;;;10.35;58.41;100283.22;5047600;28;20507;-69
2022/05/29 02:52:13;;;;;;;3.25;1.40;;;;;;;10.35;58.11;100287.69;5016376;28;20198;-69
2022/05/29 02:54:39;;;;;;;3.40;1.85;;;;;;;10.37;58.70;100288.38;5050074;28;20501;-69
2022/05/29 02:57:05;;;;;;;5.80;1.60;;;;;;;10.38;58.93;100290.84;5050206;28;20127;-69
2022/05/29 02:59:38;;;;;;;5.10;1.73;;;;;;;10.45;58.33;100277.00;5046840;28;20056;-69
2022/05/29 03:02:41;;;;;;;2.53;1.00;;;;;;;10.49;58.04;100289.75;5045118;28;20033;-69
2022/05/29 03:05:28;;;;;;;3.70;1.40;;;;;;;10.53;58.02;100280.50;5043868;28;20029;-69
2022/05/29 03:08:32;;;;;;;3.92;1.50;;;;;;;10.58;57.86;100282.69;5047946;28;20506;-69
2022/05/29 03:11:13;;;;;;;2.63;1.20;;;;;;;10.61;57.81;100272.63;5046059;28;20071;-69
2022/05/29 03:13:38;;;;;;;2.67;1.00;;;;;;;10.66;58.50;100280.09;5045863;28;20041;-70
2022/05/29 03:16:18;;;;;;;2.93;1.30;;;;;;;10.68;58.26;100271.97;5050169;28;20233;-70
2022/05/29 03:19:20;;;;;;;2.97;1.20;;;;;;;10.72;57.99;100270.69;5052050;28;20338;-70
2022/05/29 03:21:58;;;;;;;2.60;1.33;;;;;;;10.75;57.71;100273.84;5046424;28;20474;-70
2022/05/29 03:24:42;;;;;;;2.20;1.40;;;;;;;10.79;57.70;100263.78;5047914;28;20111;-70
2022/05/29 03:27:22;;;;;;;2.83;1.23;;;;;;;10.82;57.42;100271.38;5044419;28;20142;-70
2022/05/29 03:30:01;;;;;;;5.30;1.30;;;;;;;10.84;57.71;100278.19;5041445;28;20036;-70
2022/05/29 03:32:27;;;;;;;3.70;1.33;;;;;;;10.85;58.02;100276.38;5047427;28;20047;-70
2022/05/29 03:34:53;;;;;;;3.13;1.13;;;;;;;10.88;57.63;100273.41;5046342;28;20041;-70
2022/05/29 03:37:19;;;;;;;1.60;0.80;;;;;;;10.91;57.63;100278.34;5045966;28;20336;-70
2022/05/29 03:39:44;;;;;;;1.90;1.30;;;;;;;10.94;57.52;100272.75;5047414;28;20033;-70
2022/05/29 03:42:10;;;;;;;3.83;1.45;;;;;;;10.97;57.87;100277.72;5046546;28;20048;-70
2022/05/29 03:44:35;;;;;;;2.53;1.10;;;;;;;11.01;57.55;100272.94;5046841;28;20037;-70
2022/05/29 03:47:01;;;;;;;3.75;1.38;;;;;;;11.04;57.42;100259.41;5049254;28;20058;-70
2022/05/29 03:49:26;;;;;;;2.35;1.15;;;;;;;11.07;57.06;100260.91;5049050;28;20033;-70
2022/05/29 03:51:52;;;;;;;3.63;1.30;;;;;;;11.07;57.43;100266.19;5047557;28;20033;-70
2022/05/29 03:54:17;;;;;;;4.47;1.27;;;;;;;11.06;57.40;100260.06;5045802;28;20048;-70
2022/05/29 03:56:43;;;;;;;2.35;0.98;;;;;;;11.06;57.41;100265.38;5043227;28;20096;-69
2022/05/29 03:59:08;;;;;;;2.60;1.27;;;;;;;11.09;57.39;100265.03;5045280;28;20037;-70
2022/05/29 04:01:35;;;;;;;4.50;1.27;;;;;;;11.13;57.25;100268.16;5047525;28;20497;-70
2022/05/29 04:04:01;;;;;;;2.97;1.73;;;;;;;11.17;57.12;100267.69;5047467;28;20033;-70
2022/05/29 04:06:28;;;;;;;6.50;1.70;;;;;;;11.19;57.38;100259.59;5048785;28;20402;-70
2022/05/29 04:14:25;;;;;;;5.32;1.90;;;;;;;11.20;58.05;100274.47;5046606;28;20052;-70
2022/05/29 04:16:51;;;;;;;4.47;1.58;;;;;;;11.24;58.03;100265.22;5049082;28;20398;-70
2022/05/29 04:19:16;;;;;;;5.35;2.38;;;;;;;11.30;57.89;100261.09;5048681;28;20036;-70
2022/05/29 04:21:42;;;;;;;6.18;2.00;;;;;;;11.32;57.78;100261.75;5046054;28;20569;-70
2022/05/29 04:24:07;;;;;;;4.50;1.80;;;;;;;11.35;57.94;100269.41;5045614;28;20375;-70
2022/05/29 04:26:34;;;;;;;6.43;1.65;;;;;;;11.35;58.10;100259.63;5046339;28;20094;-70
2022/05/29 04:29:01;;;;;;;2.83;1.30;;;;;;;11.41;57.69;100261.59;5046632;28;20406;-70
2022/05/29 04:31:26;;;;;;;5.20;1.60;;;;;;;11.43;57.44;100259.63;5045637;28;20033;-70
2022/05/29 04:33:52;;;;;;;6.90;1.75;;;;;;;11.43;57.97;100256.97;5045477;28;20029;-69
2022/05/29 04:36:17;;;;;;;4.43;1.65;;;;;;;11.42;57.79;100265.94;5042812;28;20047;-70
2022/05/29 04:38:43;;;;;;;4.45;1.80;;;;;;;11.42;57.93;100273.88;5048199;28;20078;-69
2022/05/29 04:41:09;;;;;;;4.10;1.58;;;;;;;11.45;57.72;100272.72;5050082;28;20477;-68
2022/05/29 04:43:35;;;;;;;2.58;1.40;;;;;;;11.49;57.79;100276.69;5046581;28;20123;-69
2022/05/29 04:46:00;;;;;;;2.20;1.02;;;;;;;11.51;57.92;100277.34;5047080;28;20534;-69
2022/05/29 04:48:26;;;;;;;2.90;1.30;;;;;;;11.40;58.22;100277.66;5044168;28;20041;-69
2022/05/29 04:50:59;;;;;;;3.58;1.50;;;;;;;11.08;58.93;100283.69;5045230;28;20482;-69
2022/05/29 04:53:26;;;;;;;4.93;1.50;;;;;;;10.81;60.39;100289.06;5045623;28;20060;-69
2022/05/29 04:55:53;;;;;;;6.25;1.90;;;;;;;10.52;61.88;100285.97;5046762;28;20037;-69
2022/05/29 04:58:19;;;;;;;5.63;1.55;;;;;;;10.46;62.30;100297.97;5043784;28;20083;-69
2022/05/29 05:00:45;;;;;;;4.32;1.85;;;;;;;10.45;62.17;100298.16;5046175;28;20473;-69
2022/05/29 05:03:10;;;;;;;3.80;1.50;;;;;;;10.28;62.66;100290.13;5045228;28;20423;-69
2022/05/29 05:05:36;;;;;;;2.13;1.25;;;;;;;10.34;62.34;100294.78;5045153;28;20088;-69
2022/05/29 05:08:02;;;;;;;2.47;1.20;;;;;;;10.34;62.47;100299.22;5046794;28;20033;-69
2022/05/29 05:10:27;;;;;;;1.77;1.10;;;;;;;10.34;63.42;100299.22;5043939;28;20045;-69
2022/05/29 05:12:53;;;;;;;2.38;1.10;;;;;;;10.37;63.97;100307.69;5045491;28;20029;-69
2022/05/29 05:15:18;;;;;;;3.30;1.20;;;;;;;10.46;63.08;100311.19;5045319;28;20041;-69
2022/05/29 05:17:43;;;;;;;5.57;1.33;;;;;;;10.50;62.70;100306.44;5043948;28;20378;-69
2022/05/29 05:20:10;;;;;;;3.92;1.50;;;;;;;10.40;62.83;100315.31;5044714;28;20413;-69
2022/05/29 05:22:35;;;;;;;4.97;1.55;;;;;;;10.32;63.18;100317.06;5045928;28;20366;-69
2022/05/29 05:25:01;;;;;;;3.58;1.30;;;;;;;10.25;64.16;100316.84;5047394;28;20040;-69
2022/05/29 05:27:26;;;;;;;3.40;1.30;;;;;;;10.25;63.70;100318.63;5047697;28;20032;-69
2022/05/29 05:29:51;;;;;;;3.17;1.55;;;;;;;10.14;64.35;100312.63;5048580;28;20029;-69
2022/05/29 05:32:17;;;;;;;3.05;1.50;;;;;;;10.03;64.28;100325.25;5047240;28;20049;-69
2022/05/29 05:34:42;;;;;;;6.28;2.50;;;;;;;9.86;64.63;100319.81;5051073;28;20043;-69
2022/05/29 05:37:10;;;;;;;6.28;2.33;;;;;;;9.75;66.00;100320.09;5048555;28;20044;-69
2022/05/29 05:39:35;;;;;;;4.82;2.42;;;;;;;9.77;65.57;100321.59;5048076;28;20044;-69
2022/05/29 05:42:00;;;;;;;4.45;2.08;;;;;;;9.78;65.44;100315.31;5050428;28;20086;-69
2022/05/29 05:44:26;;;;;;;4.40;1.70;;;;;;;9.81;65.22;100316.81;5047775;28;20041;-70
2022/05/29 05:46:53;;;;;;;3.72;1.60;;;;;;;9.71;65.84;100310.78;5047494;28;20065;-70
2022/05/29 05:49:21;;;;;;;3.50;1.50;;;;;;;9.64;66.75;100312.38;5046703;28;20052;-69
2022/05/29 05:51:47;;;;;;;4.07;1.55;;;;;;;9.60;67.69;100303.09;5048601;28;20090;-70
2022/05/29 05:54:13;;;;;;;3.92;1.50;;;;;;;9.54;67.96;100302.72;5048512;28;20029;-70
2022/05/29 05:56:43;;;;;;;3.88;1.60;;;;;;;9.46;69.63;100302.66;5051710;28;20036;-70
2022/05/29 05:59:09;;;;;;;3.83;1.70;;;;;;;9.44;69.79;100296.69;5050084;28;20063;-70
2022/05/29 06:01:34;;;;;;;4.72;1.80;;;;;;;9.38;70.52;100299.91;5047844;28;20136;-70
2022/05/29 06:03:59;;;;;;;3.58;1.77;;;;;;;9.38;70.62;100293.81;5049482;28;20526;-70
2022/05/29 06:06:25;;;;;;;4.80;1.80;;;;;;;9.40;70.95;100287.41;5046775;28;20162;-70
2022/05/29 06:08:50;;;;;;;4.85;1.90;;;;;;;9.36;72.24;100276.31;5049173;28;20533;-70
2022/05/29 06:11:16;;;;;;;5.82;2.22;;;;;;;9.37;72.64;100277.16;5047535;28;20123;-70
2022/05/29 06:13:41;;;;;;;4.45;1.98;;;;;;;9.37;73.18;100287.72;5047765;28;20033;-70
2022/05/29 06:16:06;;;;;;;5.70;1.85;;;;;;;9.40;73.44;100294.50;5049306;28;20079;-70
2022/05/29 06:18:32;;;;;;;4.43;1.90;;;;;;;9.55;73.63;100301.72;5048154;28;20040;-70
2022/05/29 06:21:04;;;;;;;2.03;1.33;;;;;;;9.74;72.93;100299.91;5049247;28;20045;-70
2022/05/29 06:23:30;;;;;;;1.90;1.13;;;;;;;9.86;72.94;100303.16;5063214;28;20044;-70
2022/05/29 06:25:56;;;;;;;4.50;1.45;;;;;;;9.89;72.75;100295.78;5050083;28;20052;-70
2022/05/29 06:28:21;;;;;;;2.40;1.10;;;;;;;10.03;72.25;100296.19;5050099;28;20048;-70
2022/05/29 06:30:47;;;;;;;1.77;1.10;;;;;;;10.20;72.24;100308.53;5048774;28;20516;-70
2022/05/29 06:33:13;;;;;;;3.03;1.05;;;;;;;10.26;72.29;100300.00;5047773;28;20039;-70
2022/05/29 06:35:38;;;;;;;4.10;1.67;;;;;;;10.17;73.04;100308.84;5049822;28;20060;-70
2022/05/29 06:38:04;;;;;;;3.35;1.50;;;;;;;10.08;73.69;100305.31;5047687;28;20037;-70
2022/05/29 06:40:29;;;;;;;5.72;1.90;;;;;;;10.06;73.20;100304.66;5045908;28;20057;-70
2022/05/29 06:42:55;;;;;;;5.05;1.52;;;;;;;10.03;73.29;100309.41;5050021;28;20037;-70
2022/05/29 06:45:21;;;;;;;4.25;1.50;;;;;;;9.96;73.48;100303.88;5048811;28;20087;-70
2022/05/29 06:47:46;;;;;;;2.45;1.20;;;;;;;9.99;73.41;100304.44;5050145;28;20068;-70
2022/05/29 06:50:12;;;;;;;2.08;1.30;;;;;;;10.07;73.67;100301.00;5047370;28;20043;-70
2022/05/29 06:52:38;;;;;;;5.43;1.77;;;;;;;10.37;74.63;100306.88;5048882;28;20036;-70
2022/05/29 06:55:04;;;;;;;4.20;1.90;;;;;;;10.98;76.08;100307.66;5048044;28;20033;-70
2022/05/29 06:57:36;;;;;;;3.85;1.40;;;;;;;11.71;76.61;100314.13;5050513;28;20139;-70
2022/05/29 07:08:31;;;;;;;4.50;1.63;;;;;;;13.95;70.23;100311.19;5047891;28;20404;-71
2022/05/29 07:11:01;;;;;;;4.72;1.58;;;;;;;14.53;67.67;100319.44;5048094;28;20024;-71
2022/05/29 07:13:28;;;;;;;3.53;1.70;;;;;;;14.78;65.69;100321.88;5047143;28;20127;-71
2022/05/29 07:15:53;;;;;;;3.50;1.40;;;;;;;15.22;63.59;100316.47;5046068;28;20520;-70
2022/05/29 07:18:19;;;;;;;3.47;1.40;;;;;;;15.59;63.56;100321.78;5046830;28;20044;-71
2022/05/29 07:20:44;;;;;;;3.55;1.00;;;;;;;15.95;60.99;100315.63;5046873;28;20037;-71
2022/05/29 07:23:09;;;;;;;5.05;1.52;;;;;;;16.21;58.43;100325.66;5049706;28;20056;-70
2022/05/29 07:25:35;;;;;;;4.53;1.50;;;;;;;16.23;56.91;100321.78;5049100;28;20118;-70
2022/05/29 07:28:00;;;;;;;3.72;0.90;;;;;;;16.52;57.58;100318.09;5050570;28;20037;-71
2022/05/29 07:30:26;;;;;;;3.40;1.25;;;;;;;17.04;56.14;100323.09;5049477;28;20033;-70
2022/05/29 07:32:51;;;;;;;3.70;1.33;;;;;;;17.33;55.90;100314.78;5048330;28;20045;-70
2022/05/29 07:35:17;;;;;;;3.55;1.17;;;;;;;17.64;55.29;100321.44;5049599;28;20041;-71
2022/05/29 07:37:43;;;;;;;3.72;1.48;;;;;;;17.85;54.44;100317.78;5048462;28;20258;-71
2022/05/29 07:40:09;;;;;;;3.03;1.30;;;;;;;18.20;52.31;100314.91;5047184;28;20047;-71
2022/05/29 07:45:19;;;;;;;4.43;1.20;;;;;;;18.89;48.20;100319.72;5045295;28;20059;-71
2022/05/29 07:47:46;;;;;;;3.85;0.93;;;;;;;19.17;48.36;100318.59;5045788;28;20033;-71
2022/05/29 07:50:15;;;;;;;3.88;1.10;;;;;;;19.30;47.07;100317.72;5044676;28;20375;-71
2022/05/29 07:52:41;;;;;;;2.97;1.20;;;;;;;19.21;46.41;100317.16;5047212;28;20041;-71
2022/05/29 07:55:06;;;;;;;;;;;;;;;19.47;45.96;100316.19;5046126;28;20048;-71
2022/05/29 07:57:32;;;;;;;4.13;1.40;;;;;;;19.93;43.43;100314.25;5048476;28;19925;-70
2022/05/29 07:59:57;;;;;;;3.70;1.02;;;;;;;19.84;43.74;100319.06;5049187;28;20524;-71
2022/05/29 08:02:22;;;;;;;4.72;1.20;;;;;;;19.97;42.83;100304.69;5045331;28;20040;-71
2022/05/29 08:04:48;;;;;;;2.28;0.90;;;;;;;20.77;42.86;100312.84;5046367;28;20075;-71
2022/05/29 08:07:16;;;;;;;4.18;1.20;;;;;;;21.40;38.83;100308.16;5045850;28;20041;-71
2022/05/29 08:09:41;;;;;;;4.35;1.20;;;;;;;21.95;39.33;100310.66;5046958;28;20032;-71
2022/05/29 08:12:07;;;;;;;3.03;1.08;;;;;;;22.35;38.61;100315.34;5047125;28;20695;-71
2022/05/29 08:14:33;;;;;;;2.92;1.10;;;;;;;22.40;36.88;100304.69;5046859;28;20444;-71
2022/05/29 08:16:58;;;;;;;3.40;0.98;;;;;;;22.04;38.31;100303.84;5045618;28;20422;-71
2022/05/29 08:19:24;;;;;;;3.45;1.00;;;;;;;21.53;37.39;100299.09;5046583;28;20067;-71
2022/05/29 08:21:49;;;;;;;4.25;1.80;;;;;;;20.53;38.54;100303.78;5045440;28;20299;-71
2022/05/29 08:32:27;;;;;;;3.22;1.30;;;;;;;17.73;41.60;100309.53;5045231;28;20048;-70
2022/05/29 08:34:52;;;;;;;3.63;1.30;;;;;;;17.18;42.54;100306.09;5044976;28;20053;-70
2022/05/29 08:37:18;;;;;;;3.50;1.20;;;;;;;16.75;43.13;100307.09;5045891;28;20103;-70
2022/05/29 08:39:43;;;;;;;3.47;1.10;;;;;;;16.47;43.18;100303.66;5038010;28;20417;-69
2022/05/29 08:42:12;;;;;;;4.15;1.40;;;;;;;16.18;43.97;100305.50;5045609;28;20147;-70
2022/05/29 08:44:49;;;;;;;2.78;0.98;;;;;;;16.02;44.66;100303.97;5044780;28;20044;-70
2022/05/29 08:47:24;;;;;;;3.38;1.17;;;;;;;15.79;45.58;100298.84;5046742;28;20041;-70
2022/05/29 08:49:49;;;;;;;2.00;0.88;;;;;;;16.06;44.98;100297.22;5045729;28;20748;-70
2022/05/29 08:52:29;;;;;;;3.35;1.20;;;;;;;16.27;44.93;100303.53;5046227;28;20071;-70
2022/05/29 08:55:06;;;;;;;3.03;1.10;;;;;;;16.47;44.29;100303.66;5045879;28;20071;-70
2022/05/29 08:57:47;;;;;;;2.60;1.00;;;;;;;16.64;44.27;100291.66;5047438;28;20041;-70
2022/05/29 09:00:36;;;;;;;3.80;1.10;;;;;;;17.00;43.76;100293.28;5052799;28;20072;-70
2022/05/29 09:03:34;;;;;;;3.72;1.08;;;;;;;18.15;41.45;100298.66;5050625;28;20033;-70
2022/05/29 09:06:33;;;;;;;2.60;0.95;;;;;;;18.64;40.26;100282.09;5052335;28;20398;-70
2022/05/29 09:09:04;;;;;;;4.47;1.10;;;;;;;18.72;38.86;100278.34;5050759;28;20029;-70
2022/05/29 09:11:37;;;;;;;3.85;1.40;;;;;;;18.75;38.89;100282.47;5050531;28;20460;-70
2022/05/29 09:14:23;;;;;;;2.28;0.93;;;;;;;18.33;38.55;100287.28;5050582;28;20060;-70
2022/05/29 09:16:57;;;;;;;3.50;1.30;;;;;;;18.25;39.84;100277.63;5050364;28;20064;-70
2022/05/29 09:19:43;;;;;;;6.03;2.00;;;;;;;17.86;39.83;100281.19;5049502;28;20068;-70
2022/05/29 09:22:27;;;;;;;5.07;1.48;;;;;;;17.45;40.45;100277.59;5045039;28;20052;-70
2022/05/29 09:25:01;;;;;;;3.75;1.20;;;;;;;17.30;40.36;100275.09;5056219;28;20039;-70
2022/05/29 09:27:27;;;;;;;3.75;1.00;;;;;;;17.21;40.24;100273.66;5050472;28;20132;-70
2022/05/29 09:29:53;;;;;;;3.72;1.23;;;;;;;17.13;40.48;100271.13;5052494;28;20121;-70
2022/05/29 09:32:22;;;;;;;3.88;1.17;;;;;;;17.01;40.73;100268.22;5050905;28;20037;-70
2022/05/29 09:35:10;;;;;;;3.83;1.08;;;;;;;16.98;41.77;100268.63;5054117;28;20083;-70
2022/05/29 09:37:46;;;;;;;2.78;0.98;;;;;;;16.98;41.84;100269.44;5047346;28;20118;-70
2022/05/29 09:40:18;;;;;;;3.15;1.33;;;;;;;17.00;42.59;100266.59;5050458;28;20359;-70
2022/05/29 09:42:43;;;;;;;;;;;;;;;17.47;40.92;100269.38;5050579;28;20039;-70
2022/05/29 09:45:15;;;;;;;4.95;1.17;;;;;;;18.12;39.94;100273.13;5049612;28;19925;-70
2022/05/29 09:50:50;;;;;;;2.10;1.05;;;;;;;18.89;38.51;100259.97;5048625;28;20039;-70
2022/05/29 09:53:44;;;;;;;2.78;1.15;;;;;;;19.55;38.30;100261.47;5049036;28;20425;-70
2022/05/29 09:56:10;;;;;;;2.85;1.10;;;;;;;20.00;37.34;100250.59;5039171;28;20044;-70
2022/05/29 09:58:47;;;;;;;3.28;1.25;;;;;;;20.61;35.70;100242.75;5048933;28;20033;-70
2022/05/29 10:01:26;;;;;;;2.65;1.00;;;;;;;20.92;34.92;100245.25;5046536;28;20036;-70
2022/05/29 10:03:55;;;;;;;3.17;1.00;;;;;;;21.91;34.08;100233.28;5051850;28;20029;-70
2022/05/29 10:06:34;;;;;;;3.45;1.00;;;;;;;23.02;31.72;100236.72;5049831;28;20486;-71
2022/05/29 10:09:19;;;;;;;4.20;1.08;;;;;;;24.32;30.64;100236.69;5046123;28;20045;-70
2022/05/29 10:11:59;;;;;;;2.95;0.95;;;;;;;23.74;31.41;100235.31;5049252;28;20044;-70
2022/05/29 10:14:35;;;;;;;2.83;0.98;;;;;;;22.48;32.76;100228.09;5045201;28;20040;-70
2022/05/29 10:17:01;;;;;;;2.63;0.90;;;;;;;21.67;33.44;100227.88;5048291;28;20049;-70
2022/05/29 10:19:38;;;;;;;3.47;0.93;;;;;;;20.81;33.17;100226.38;5048108;28;20429;-70
2022/05/29 10:22:37;;;;;;;3.08;0.98;;;;;;;20.00;34.55;100234.50;5045380;28;20037;-70
2022/05/29 10:25:15;;;;;;;4.80;1.13;;;;;;;19.55;35.26;100225.78;5048114;28;20049;-69
2022/05/29 10:27:45;;;;;;;3.50;1.00;;;;;;;19.19;35.03;100221.91;5045656;28;20039;-70
2022/05/29 10:30:26;;;;;;;2.03;0.80;;;;;;;18.96;35.27;100078.56;5049128;28;20041;-70
2022/05/29 10:32:59;;;;;;;;;;;;;;;19.18;34.92;100220.25;5050771;28;20099;-70
2022/05/29 10:35:31;;;;;;;2.22;0.90;;;;;;;19.54;34.87;100214.22;5049989;28;19960;-70
2022/05/29 10:37:56;;;;;;;2.25;0.73;;;;;;;19.40;34.79;100218.88;5049685;28;20033;-70
2022/05/29 10:40:31;;;;;;;2.03;0.77;;;;;;;19.50;35.01;100208.47;5049692;28;20051;-70
2022/05/29 10:43:04;;;;;;;1.63;0.70;;;;;;;19.63;34.57;100212.91;5052471;28;20029;-70
2022/05/29 10:45:45;;;;;;;1.92;0.80;;;;;;;19.58;34.77;100211.94;5055263;28;20177;-70
2022/05/29 10:48:23;;;;;;;4.83;0.90;;;;;;;19.42;34.33;100205.22;5029800;28;20589;-70
2022/05/29 10:51:20;;;;;;;3.90;1.20;;;;;;;19.36;35.03;100201.56;5048500;28;20575;-70
2022/05/29 10:54:00;;;;;;;2.83;1.17;;;;;;;19.51;33.99;100206.59;5047479;28;20068;-70
2022/05/29 10:56:53;;;;;;;1.92;0.80;;;;;;;19.61;32.09;100198.06;5048203;28;20049;-70
2022/05/29 10:59:39;;;;;;;2.42;0.82;;;;;;;19.79;32.79;100197.34;5046591;28;20045;-70
2022/05/29 11:05:32;;;;;;;27.42;9.45;;;;;;;22.30;30.47;100199.41;5041559;28;20102;-70
2022/05/29 11:08:04;;;;;;;7.05;2.88;;;;;;;23.31;28.32;100204.31;5045532;28;20498;-70
2022/05/29 11:10:53;;;;;;;3.33;1.30;;;;;;;22.34;28.80;100203.28;5045440;28;20040;-70
2022/05/29 11:13:45;;;;;;;2.38;0.80;;;;;;;23.50;26.70;100208.44;5046965;28;20059;-70
2022/05/29 11:16:20;;;;;;;5.43;1.23;;;;;;;25.81;25.50;100193.06;5041260;28;20493;-70
2022/05/29 11:19:14;;;;;;;2.50;1.00;;;;;;;26.57;24.14;100197.25;5046117;28;20044;-70
2022/05/29 11:21:58;;;;;;;2.85;1.00;;;;;;;24.76;26.06;100198.84;5043510;28;20595;-70
2022/05/29 11:24:43;;;;;;;3.05;1.10;;;;;;;24.58;26.48;100189.19;5048387;28;20033;-70
2022/05/29 11:27:40;;;;;;;2.78;1.00;;;;;;;23.92;26.02;100185.59;5044626;28;20048;-70
2022/05/29 11:30:10;;;;;;;2.15;0.90;;;;;;;22.44;27.65;100183.81;5044849;28;20066;-70
2022/05/29 11:33:06;;;;;;;2.45;0.70;;;;;;;21.62;29.20;100176.63;5045994;28;20037;-70
2022/05/29 11:35:40;;;;;;;2.78;0.85;;;;;;;21.14;29.58;100183.75;5047887;28;20052;-70
2022/05/29 11:38:18;;;;;;;1.90;0.85;;;;;;;20.97;30.19;100174.69;5047668;28;20532;-70
2022/05/29 11:40:45;;;;;;;;;;;;;;;20.96;30.92;100173.06;5046936;28;20063;-70
2022/05/29 11:43:22;;;;;;;2.35;0.90;;;;;;;21.03;30.16;100173.78;5042535;28;19927;-70
2022/05/29 11:51:54;;;;;;;1.15;0.60;;;;;;;20.31;29.97;100155.69;5049720;28;20071;-69
2022/05/29 11:54:30;;;;;;;2.00;0.60;;;;;;;20.35;29.99;100150.69;5047501;28;20041;-70
2022/05/29 11:57:22;;;;;;;3.60;1.00;;;;;;;20.23;29.96;100152.47;5043704;28;20277;-70
2022/05/29 11:59:57;;;;;;;2.75;0.95;;;;;;;20.01;29.24;100150.25;5044508;28;20041;-69
2022/05/29 12:02:42;;;;;;;2.20;1.10;;;;;;;20.32;28.74;100148.44;5043360;28;20095;-70
2022/05/29 12:05:32;;;;;;;3.17;0.93;;;;;;;22.86;25.73;100152.03;5045864;28;20494;-69
2022/05/29 12:08:13;;;;;;;1.42;0.90;;;;;;;24.37;23.57;100147.56;5045093;28;20325;-70
2022/05/29 12:11:04;;;;;;;2.63;0.70;;;;;;;23.27;23.27;100141.97;5047769;28;20041;-70
2022/05/29 12:13:36;;;;;;;4.38;1.08;;;;;;;23.42;24.32;100141.38;5049080;28;20056;-70
2022/05/29 12:16:08;;;;;;;3.13;0.90;;;;;;;24.16;24.14;100143.78;5046607;28;20033;-70
2022/05/29 12:18:43;;;;;;;2.30;0.70;;;;;;;24.99;23.66;100134.72;5042357;28;20064;-70
2022/05/29 12:21:14;;;;;;;1.38;0.63;;;;;;;24.98;23.25;100136.63;5044836;28;20417;-70
2022/05/29 12:23:44;;;;;;;1.55;0.80;;;;;;;24.29;24.08;100133.69;5047997;28;20037;-70
2022/05/29 12:26:29;;;;;;;1.60;0.70;;;;;;;23.95;24.49;100137.34;5043208;28;20037;-70
2022/05/29 12:29:06;;;;;;;;;;;;;;;23.56;24.83;100133.75;5045921;28;20049;-70